sensor_id;sensor_type;location;lat;lon;timestamp;pressure;altitude;pressure_sealevel;temperature
63158;BMP280;49381;49.338;8.794;2022-12-07T00:00:46;100466.25;;;6.02
63158;BMP280;49381;49.338;8.794;2022-12-07T00:02:46;100466.25;;;6.02
63158;BMP280;49381;49.338;8.794;2022-12-07T00:04:49;100467.16;;;6.05
63158;BMP280;49381;49.338;8.794;2022-12-07T00:06:51;100454.66;;;6.06
63158;BMP280;49381;49.338;8.794;2022-12-07T00:08:52;100464.63;;;6.03
63158;BMP280;49381;49.338;8.794;2022-12-07T00:10:52;100454.47;;;6.01
63158;BMP280;49381;49.338;8.794;2022-12-07T00:12:53;100459.44;;;5.98
63158;BMP280;49381;49.338;8.794;2022-12-07T00:14:53;100459.44;;;5.98
63158;BMP280;49381;49.338;8.794;2022-12-07T00:16:53;100451.78;;;5.95
63158;BMP280;49381;49.338;8.794;2022-12-07T00:18:54;100457.78;;;5.98
63158;BMP280;49381;49.338;8.794;2022-12-07T00:21:00;100453.38;;;5.91
63158;BMP280;49381;49.338;8.794;2022-12-07T00:23:00;100444.84;;;5.86
63158;BMP280;49381;49.338;8.794;2022-12-07T00:25:00;100444.19;;;5.92
63158;BMP280;49381;49.338;8.794;2022-12-07T00:27:01;100445.75;;;5.88
63158;BMP280;49381;49.338;8.794;2022-12-07T00:29:03;100444.09;;;5.89
63158;BMP280;49381;49.338;8.794;2022-12-07T00:31:06;100440.53;;;5.81
63158;BMP280;49381;49.338;8.794;2022-12-07T00:33:06;100436.19;;;5.76
63158;BMP280;49381;49.338;8.794;2022-12-07T00:35:07;100442.25;;;5.82
63158;BMP280;49381;49.338;8.794;2022-12-07T00:37:09;100434.75;;;5.85
63158;BMP280;49381;49.338;8.794;2022-12-07T00:39:09;100433.78;;;5.80
63158;BMP280;49381;49.338;8.794;2022-12-07T00:41:12;100432.19;;;5.82
63158;BMP280;49381;49.338;8.794;2022-12-07T00:43:12;100428.00;;;5.82
63158;BMP280;49381;49.338;8.794;2022-12-07T00:45:13;100423.97;;;5.89
63158;BMP280;49381;49.338;8.794;2022-12-07T00:47:13;100440.41;;;5.76
63158;BMP280;49381;49.338;8.794;2022-12-07T00:49:14;100440.63;;;5.56
63158;BMP280;49381;49.338;8.794;2022-12-07T00:51:16;100432.88;;;5.48
63158;BMP280;49381;49.338;8.794;2022-12-07T00:53:18;100428.16;;;5.59
63158;BMP280;49381;49.338;8.794;2022-12-07T00:55:19;100433.66;;;5.47
63158;BMP280;49381;49.338;8.794;2022-12-07T00:57:19;100435.41;;;5.49
63158;BMP280;49381;49.338;8.794;2022-12-07T00:59:19;100422.63;;;5.42
63158;BMP280;49381;49.338;8.794;2022-12-07T01:01:20;100424.34;;;5.43
63158;BMP280;49381;49.338;8.794;2022-12-07T01:03:20;100422.81;;;5.48
63158;BMP280;49381;49.338;8.794;2022-12-07T01:05:20;100431.34;;;5.52
63158;BMP280;49381;49.338;8.794;2022-12-07T01:07:21;100427.22;;;5.56
63158;BMP280;49381;49.338;8.794;2022-12-07T01:09:22;100428.81;;;5.52
63158;BMP280;49381;49.338;8.794;2022-12-07T01:11:24;100435.28;;;5.45
63158;BMP280;49381;49.338;8.794;2022-12-07T01:13:25;100433.84;;;5.52
63158;BMP280;49381;49.338;8.794;2022-12-07T01:15:25;100432.25;;;5.56
63158;BMP280;49381;49.338;8.794;2022-12-07T01:17:26;100429.69;;;5.54
63158;BMP280;49381;49.338;8.794;2022-12-07T01:19:26;100436.00;;;5.41
63158;BMP280;49381;49.338;8.794;2022-12-07T01:21:28;100440.28;;;5.43
63158;BMP280;49381;49.338;8.794;2022-12-07T01:23:29;100444.69;;;5.51
63158;BMP280;49381;49.338;8.794;2022-12-07T01:25:31;100437.97;;;5.50
63158;BMP280;49381;49.338;8.794;2022-12-07T01:27:32;100439.66;;;5.51
63158;BMP280;49381;49.338;8.794;2022-12-07T01:29:32;100443.94;;;5.54
63158;BMP280;49381;49.338;8.794;2022-12-07T01:31:33;100437.25;;;5.54
63158;BMP280;49381;49.338;8.794;2022-12-07T01:33:35;100440.63;;;5.56
63158;BMP280;49381;49.338;8.794;2022-12-07T01:35:36;100449.09;;;5.58
63158;BMP280;49381;49.338;8.794;2022-12-07T01:37:36;100448.28;;;5.59
63158;BMP280;49381;49.338;8.794;2022-12-07T01:39:37;100455.81;;;5.59
63158;BMP280;49381;49.338;8.794;2022-12-07T01:41:40;100466.03;;;5.65
63158;BMP280;49381;49.338;8.794;2022-12-07T01:44:12;100455.78;;;5.58
63158;BMP280;49381;49.338;8.794;2022-12-07T01:46:13;100445.03;;;5.63
63158;BMP280;49381;49.338;8.794;2022-12-07T01:48:16;100445.78;;;5.61
63158;BMP280;49381;49.338;8.794;2022-12-07T01:50:17;100451.75;;;5.63
63158;BMP280;49381;49.338;8.794;2022-12-07T01:52:21;100446.13;;;5.71
63158;BMP280;49381;49.338;8.794;2022-12-07T01:54:23;100438.69;;;5.76
63158;BMP280;49381;49.338;8.794;2022-12-07T01:56:25;100430.16;;;5.69
63158;BMP280;49381;49.338;8.794;2022-12-07T01:58:28;100429.28;;;5.69
63158;BMP280;49381;49.338;8.794;2022-12-07T02:00:29;100434.16;;;5.64
63158;BMP280;49381;49.338;8.794;2022-12-07T02:02:31;100430.69;;;5.59
63158;BMP280;49381;49.338;8.794;2022-12-07T02:04:33;100419.97;;;5.66
63158;BMP280;49381;49.338;8.794;2022-12-07T02:06:35;100420.75;;;5.64
63158;BMP280;49381;49.338;8.794;2022-12-07T02:08:35;100418.09;;;5.59
63158;BMP280;49381;49.338;8.794;2022-12-07T02:10:36;100423.03;;;5.56
63158;BMP280;49381;49.338;8.794;2022-12-07T02:12:36;100417.09;;;5.53
63158;BMP280;49381;49.338;8.794;2022-12-07T02:14:38;100420.59;;;5.58
63158;BMP280;49381;49.338;8.794;2022-12-07T02:16:51;100418.78;;;5.54
63158;BMP280;49381;49.338;8.794;2022-12-07T02:19:02;100415.47;;;5.55
63158;BMP280;49381;49.338;8.794;2022-12-07T02:21:12;100405.38;;;5.53
63158;BMP280;49381;49.338;8.794;2022-12-07T02:23:38;100411.22;;;5.52
63158;BMP280;49381;49.338;8.794;2022-12-07T02:25:59;100418.06;;;5.58
63158;BMP280;49381;49.338;8.794;2022-12-07T02:28:04;100419.97;;;5.66
63158;BMP280;49381;49.338;8.794;2022-12-07T02:30:09;100416.75;;;5.70
63158;BMP280;49381;49.338;8.794;2022-12-07T02:32:14;100406.69;;;5.70
63158;BMP280;49381;49.338;8.794;2022-12-07T02:34:21;100415.91;;;5.70
63158;BMP280;49381;49.338;8.794;2022-12-07T02:36:26;100412.66;;;5.74
63158;BMP280;49381;49.338;8.794;2022-12-07T02:38:32;100413.50;;;5.74
63158;BMP280;49381;49.338;8.794;2022-12-07T02:40:38;100412.66;;;5.74
63158;BMP280;49381;49.338;8.794;2022-12-07T02:42:43;100406.84;;;5.76
63158;BMP280;49381;49.338;8.794;2022-12-07T02:44:46;100408.47;;;5.74
63158;BMP280;49381;49.338;8.794;2022-12-07T02:46:51;100406.84;;;5.76
63158;BMP280;49381;49.338;8.794;2022-12-07T02:48:53;100406.78;;;5.73
63158;BMP280;49381;49.338;8.794;2022-12-07T02:50:54;100408.50;;;5.76
63158;BMP280;49381;49.338;8.794;2022-12-07T02:52:55;100401.44;;;5.63
63158;BMP280;49381;49.338;8.794;2022-12-07T02:54:55;100393.06;;;5.62
63158;BMP280;49381;49.338;8.794;2022-12-07T02:57:00;100392.25;;;5.65
63158;BMP280;49381;49.338;8.794;2022-12-07T02:59:08;100386.22;;;5.58
63158;BMP280;49381;49.338;8.794;2022-12-07T03:01:24;100382.59;;;5.48
63158;BMP280;49381;49.338;8.794;2022-12-07T03:03:28;100375.81;;;5.45
63158;BMP280;49381;49.338;8.794;2022-12-07T03:05:54;100384.75;;;5.36
63158;BMP280;49381;49.338;8.794;2022-12-07T03:08:02;100380.84;;;5.47
63158;BMP280;49381;49.338;8.794;2022-12-07T03:10:08;100382.72;;;5.52
63158;BMP280;49381;49.338;8.794;2022-12-07T03:12:17;100391.16;;;5.55
63158;BMP280;49381;49.338;8.794;2022-12-07T03:14:23;100391.09;;;5.52
63158;BMP280;49381;49.338;8.794;2022-12-07T03:16:27;100406.50;;;5.64
63158;BMP280;49381;49.338;8.794;2022-12-07T03:18:31;100402.16;;;5.59
63158;BMP280;49381;49.338;8.794;2022-12-07T03:20:33;100401.56;;;5.67
63158;BMP280;49381;49.338;8.794;2022-12-07T03:22:35;100405.97;;;5.74
63158;BMP280;49381;49.338;8.794;2022-12-07T03:24:41;100405.19;;;5.76
63158;BMP280;49381;49.338;8.794;2022-12-07T03:26:44;100406.69;;;5.70
63158;BMP280;49381;49.338;8.794;2022-12-07T03:28:50;100403.44;;;5.74
63158;BMP280;49381;49.338;8.794;2022-12-07T03:30:56;100405.09;;;5.72
63158;BMP280;49381;49.338;8.794;2022-12-07T03:33:01;100411.81;;;5.73
63158;BMP280;49381;49.338;8.794;2022-12-07T03:35:08;100400.06;;;5.72
63158;BMP280;49381;49.338;8.794;2022-12-07T03:37:12;100400.06;;;5.72
63158;BMP280;49381;49.338;8.794;2022-12-07T03:39:21;100396.72;;;5.73
63158;BMP280;49381;49.338;8.794;2022-12-07T03:41:25;100398.34;;;5.71
63158;BMP280;49381;49.338;8.794;2022-12-07T03:43:27;100393.97;;;5.66
63158;BMP280;49381;49.338;8.794;2022-12-07T03:45:32;100389.78;;;5.66
63158;BMP280;49381;49.338;8.794;2022-12-07T03:47:43;100391.50;;;5.67
63158;BMP280;49381;49.338;8.794;2022-12-07T03:49:50;100386.47;;;5.67
63158;BMP280;49381;49.338;8.794;2022-12-07T03:51:57;100392.34;;;5.68
63158;BMP280;49381;49.338;8.794;2022-12-07T03:54:07;100382.38;;;5.69
63158;BMP280;49381;49.338;8.794;2022-12-07T03:56:09;100387.53;;;5.74
63158;BMP280;49381;49.338;8.794;2022-12-07T03:58:13;100383.44;;;5.77
63158;BMP280;49381;49.338;8.794;2022-12-07T04:00:15;100372.44;;;5.74
63158;BMP280;49381;49.338;8.794;2022-12-07T04:02:16;100377.50;;;5.76
63158;BMP280;49381;49.338;8.794;2022-12-07T04:04:17;100371.56;;;5.72
63158;BMP280;49381;49.338;8.794;2022-12-07T04:06:17;100373.19;;;5.71
63158;BMP280;49381;49.338;8.794;2022-12-07T04:08:19;100376.59;;;5.72
63158;BMP280;49381;49.338;8.794;2022-12-07T04:10:19;100385.72;;;5.70
63158;BMP280;49381;49.338;8.794;2022-12-07T04:12:20;100381.53;;;5.70
63158;BMP280;49381;49.338;8.794;2022-12-07T04:14:20;100374.06;;;5.72
63158;BMP280;49381;49.338;8.794;2022-12-07T04:16:20;100391.50;;;5.67
63158;BMP280;49381;49.338;8.794;2022-12-07T04:18:21;100395.72;;;5.68
63158;BMP280;49381;49.338;8.794;2022-12-07T04:20:21;100395.81;;;5.71
63158;BMP280;49381;49.338;8.794;2022-12-07T04:22:21;100398.50;;;5.77
63158;BMP280;49381;49.338;8.794;2022-12-07T04:24:24;100385.97;;;5.78
63158;BMP280;49381;49.338;8.794;2022-12-07T04:26:24;100374.28;;;5.80
63158;BMP280;49381;49.338;8.794;2022-12-07T04:28:25;100383.44;;;5.77
63158;BMP280;49381;49.338;8.794;2022-12-07T04:30:25;100366.78;;;5.82
63158;BMP280;49381;49.338;8.794;2022-12-07T04:32:25;100366.66;;;5.77
63158;BMP280;49381;49.338;8.794;2022-12-07T04:34:26;100357.41;;;5.76
63158;BMP280;49381;49.338;8.794;2022-12-07T04:36:26;100353.88;;;5.70
63158;BMP280;49381;49.338;8.794;2022-12-07T04:38:26;100356.19;;;5.63
63158;BMP280;49381;49.338;8.794;2022-12-07T04:40:28;100363.84;;;5.67
63158;BMP280;49381;49.338;8.794;2022-12-07T04:42:28;100361.34;;;5.67
63158;BMP280;49381;49.338;8.794;2022-12-07T04:44:29;100357.25;;;5.71
63158;BMP280;49381;49.338;8.794;2022-12-07T04:46:31;100353.97;;;5.73
63158;BMP280;49381;49.338;8.794;2022-12-07T04:48:31;100360.72;;;5.76
63158;BMP280;49381;49.338;8.794;2022-12-07T04:50:31;100356.53;;;5.76
63158;BMP280;49381;49.338;8.794;2022-12-07T04:52:32;100354.13;;;5.79
63158;BMP280;49381;49.338;8.794;2022-12-07T04:54:32;100360.03;;;5.81
63158;BMP280;49381;49.338;8.794;2022-12-07T04:56:34;100356.81;;;5.86
63158;BMP280;49381;49.338;8.794;2022-12-07T04:58:35;100353.41;;;5.84
63158;BMP280;49381;49.338;8.794;2022-12-07T05:00:35;100345.75;;;5.80
63158;BMP280;49381;49.338;8.794;2022-12-07T05:02:35;100347.25;;;5.72
63158;BMP280;49381;49.338;8.794;2022-12-07T05:04:36;100351.59;;;5.79
63158;BMP280;49381;49.338;8.794;2022-12-07T05:06:36;100359.13;;;5.77
63158;BMP280;49381;49.338;8.794;2022-12-07T05:08:36;100349.75;;;5.72
63158;BMP280;49381;49.338;8.794;2022-12-07T05:10:37;100344.06;;;5.79
63158;BMP280;49381;49.338;8.794;2022-12-07T05:12:38;100343.22;;;5.78
63158;BMP280;49381;49.338;8.794;2022-12-07T05:14:39;100346.56;;;5.79
63158;BMP280;49381;49.338;8.794;2022-12-07T05:16:40;100348.16;;;5.76
63158;BMP280;49381;49.338;8.794;2022-12-07T05:18:40;100344.59;;;5.68
63158;BMP280;49381;49.338;8.794;2022-12-07T05:20:41;100347.19;;;5.71
63158;BMP280;49381;49.338;8.794;2022-12-07T05:22:41;100355.56;;;5.71
63158;BMP280;49381;49.338;8.794;2022-12-07T05:24:42;100353.06;;;5.71
63158;BMP280;49381;49.338;8.794;2022-12-07T05:26:42;100351.47;;;5.73
63158;BMP280;49381;49.338;8.794;2022-12-07T05:28:44;100350.72;;;5.77
63158;BMP280;49381;49.338;8.794;2022-12-07T05:30:45;100357.34;;;5.74
63158;BMP280;49381;49.338;8.794;2022-12-07T05:32:45;100360.84;;;5.80
63158;BMP280;49381;49.338;8.794;2022-12-07T05:34:46;100365.91;;;5.81
63158;BMP280;49381;49.338;8.794;2022-12-07T05:36:46;100370.22;;;5.85
63158;BMP280;49381;49.338;8.794;2022-12-07T05:38:46;100368.63;;;5.89
63158;BMP280;49381;49.338;8.794;2022-12-07T05:40:46;100370.19;;;5.84
63158;BMP280;49381;49.338;8.794;2022-12-07T05:42:47;100368.63;;;5.89
63158;BMP280;49381;49.338;8.794;2022-12-07T05:44:48;100368.50;;;5.83
63158;BMP280;49381;49.338;8.794;2022-12-07T05:46:49;100366.78;;;5.82
63158;BMP280;49381;49.338;8.794;2022-12-07T05:48:49;100370.28;;;5.87
63158;BMP280;49381;49.338;8.794;2022-12-07T05:50:50;100366.94;;;5.88
63158;BMP280;49381;49.338;8.794;2022-12-07T05:52:50;100366.00;;;5.84
63158;BMP280;49381;49.338;8.794;2022-12-07T05:54:51;100359.88;;;5.75
63158;BMP280;49381;49.338;8.794;2022-12-07T05:56:51;100358.19;;;5.74
63158;BMP280;49381;49.338;8.794;2022-12-07T05:58:51;100351.22;;;5.66
63158;BMP280;49381;49.338;8.794;2022-12-07T06:00:55;100358.75;;;5.66
63158;BMP280;49381;49.338;8.794;2022-12-07T06:02:55;100347.84;;;5.65
63158;BMP280;49381;49.338;8.794;2022-12-07T06:04:55;100362.09;;;5.65
63158;BMP280;49381;49.338;8.794;2022-12-07T06:06:56;100358.72;;;5.64
63158;BMP280;49381;49.338;8.794;2022-12-07T06:08:56;100370.25;;;5.56
63158;BMP280;49381;49.338;8.794;2022-12-07T06:10:56;100358.75;;;5.66
63158;BMP280;49381;49.338;8.794;2022-12-07T06:12:57;100355.56;;;5.71
63158;BMP280;49381;49.338;8.794;2022-12-07T06:14:58;100353.16;;;5.74
63158;BMP280;49381;49.338;8.794;2022-12-07T06:16:59;100361.56;;;5.75
63158;BMP280;49381;49.338;8.794;2022-12-07T06:19:00;100365.00;;;5.78
63158;BMP280;49381;49.338;8.794;2022-12-07T06:21:00;100358.44;;;5.84
63158;BMP280;49381;49.338;8.794;2022-12-07T06:23:00;100363.59;;;5.89
63158;BMP280;49381;49.338;8.794;2022-12-07T06:25:01;100356.16;;;5.92
63158;BMP280;49381;49.338;8.794;2022-12-07T06:27:01;100366.09;;;5.87
63158;BMP280;49381;49.338;8.794;2022-12-07T06:29:01;100366.22;;;5.92
63158;BMP280;49381;49.338;8.794;2022-12-07T06:31:02;100372.03;;;5.91
63158;BMP280;49381;49.338;8.794;2022-12-07T06:33:04;100369.72;;;5.98
63158;BMP280;49381;49.338;8.794;2022-12-07T06:35:05;100371.44;;;6.01
63158;BMP280;49381;49.338;8.794;2022-12-07T06:37:05;100373.94;;;6.01
63158;BMP280;49381;49.338;8.794;2022-12-07T06:39:06;100377.38;;;6.02
63158;BMP280;49381;49.338;8.794;2022-12-07T06:41:06;100378.22;;;6.03
63158;BMP280;49381;49.338;8.794;2022-12-07T06:43:07;100372.41;;;6.05
63158;BMP280;49381;49.338;8.794;2022-12-07T06:45:07;100380.84;;;6.07
63158;BMP280;49381;49.338;8.794;2022-12-07T06:47:08;100379.22;;;6.09
63158;BMP280;49381;49.338;8.794;2022-12-07T06:49:10;100379.16;;;6.06
63158;BMP280;49381;49.338;8.794;2022-12-07T06:51:10;100376.59;;;6.05
63158;BMP280;49381;49.338;8.794;2022-12-07T06:53:11;100375.69;;;6.02
63158;BMP280;49381;49.338;8.794;2022-12-07T06:55:11;100373.06;;;5.97
63158;BMP280;49381;49.338;8.794;2022-12-07T06:57:12;100378.00;;;5.94
63158;BMP280;49381;49.338;8.794;2022-12-07T06:59:12;100384.72;;;5.95
63158;BMP280;49381;49.338;8.794;2022-12-07T07:01:14;100378.09;;;5.99
63158;BMP280;49381;49.338;8.794;2022-12-07T07:03:15;100381.34;;;5.93
63158;BMP280;49381;49.338;8.794;2022-12-07T07:05:16;100383.13;;;5.97
63158;BMP280;49381;49.338;8.794;2022-12-07T07:07:17;100383.97;;;5.98
63158;BMP280;49381;49.338;8.794;2022-12-07T07:09:17;100383.03;;;5.94
63158;BMP280;49381;49.338;8.794;2022-12-07T07:11:18;100384.56;;;5.89
63158;BMP280;49381;49.338;8.794;2022-12-07T07:13:18;100378.53;;;5.83
63158;BMP280;49381;49.338;8.794;2022-12-07T07:15:18;100381.19;;;5.87
63158;BMP280;49381;49.338;8.794;2022-12-07T07:17:19;100376.03;;;5.83
63158;BMP280;49381;49.338;8.794;2022-12-07T07:19:19;100386.91;;;5.82
63158;BMP280;49381;49.338;8.794;2022-12-07T07:21:21;100391.16;;;5.84
63158;BMP280;49381;49.338;8.794;2022-12-07T07:23:21;100390.44;;;5.90
63158;BMP280;49381;49.338;8.794;2022-12-07T07:25:22;100393.88;;;5.92
63158;BMP280;49381;49.338;8.794;2022-12-07T07:27:22;100390.56;;;5.94
63158;BMP280;49381;49.338;8.794;2022-12-07T07:29:22;100385.44;;;5.91
63158;BMP280;49381;49.338;8.794;2022-12-07T07:31:23;100387.13;;;5.91
63158;BMP280;49381;49.338;8.794;2022-12-07T07:33:23;100387.22;;;5.94
63158;BMP280;49381;49.338;8.794;2022-12-07T07:35:23;100378.97;;;5.99
63158;BMP280;49381;49.338;8.794;2022-12-07T07:37:26;100383.13;;;5.97
63158;BMP280;49381;49.338;8.794;2022-12-07T07:39:26;100393.88;;;5.92
63158;BMP280;49381;49.338;8.794;2022-12-07T07:41:26;100390.47;;;5.91
63158;BMP280;49381;49.338;8.794;2022-12-07T07:43:27;100384.66;;;5.92
63158;BMP280;49381;49.338;8.794;2022-12-07T07:45:27;100377.84;;;5.88
63158;BMP280;49381;49.338;8.794;2022-12-07T07:47:27;100385.41;;;5.90
63158;BMP280;49381;49.338;8.794;2022-12-07T07:49:28;100396.34;;;5.90
63158;BMP280;49381;49.338;8.794;2022-12-07T07:51:28;100402.31;;;5.94
63158;BMP280;49381;49.338;8.794;2022-12-07T07:53:30;100397.16;;;5.89
63158;BMP280;49381;49.338;8.794;2022-12-07T07:55:30;100405.56;;;5.91
63158;BMP280;49381;49.338;8.794;2022-12-07T07:57:30;100394.66;;;5.91
63158;BMP280;49381;49.338;8.794;2022-12-07T07:59:31;100405.56;;;5.91
63158;BMP280;49381;49.338;8.794;2022-12-07T08:01:31;100398.16;;;5.96
63158;BMP280;49381;49.338;8.794;2022-12-07T08:03:31;100408.97;;;5.92
63158;BMP280;49381;49.338;8.794;2022-12-07T08:05:32;100414.97;;;5.97
63158;BMP280;49381;49.338;8.794;2022-12-07T08:07:32;100407.50;;;6.01
63158;BMP280;49381;49.338;8.794;2022-12-07T08:09:34;100408.44;;;6.04
63158;BMP280;49381;49.338;8.794;2022-12-07T08:11:34;100406.78;;;6.05
63158;BMP280;49381;49.338;8.794;2022-12-07T08:13:34;100411.78;;;6.03
63158;BMP280;49381;49.338;8.794;2022-12-07T08:15:36;100406.63;;;5.99
63158;BMP280;49381;49.338;8.794;2022-12-07T08:17:37;100414.16;;;5.98
63158;BMP280;49381;49.338;8.794;2022-12-07T08:19:37;100415.94;;;6.02
63158;BMP280;49381;49.338;8.794;2022-12-07T08:21:37;100415.94;;;6.02
63158;BMP280;49381;49.338;8.794;2022-12-07T08:23:38;100414.31;;;6.03
63158;BMP280;49381;49.338;8.794;2022-12-07T08:25:40;100422.72;;;6.05
63158;BMP280;49381;49.338;8.794;2022-12-07T08:27:40;100414.31;;;6.03
63158;BMP280;49381;49.338;8.794;2022-12-07T08:29:40;100408.44;;;6.04
63158;BMP280;49381;49.338;8.794;2022-12-07T08:31:41;100413.31;;;5.97
63158;BMP280;49381;49.338;8.794;2022-12-07T08:33:41;100420.97;;;6.02
63158;BMP280;49381;49.338;8.794;2022-12-07T08:35:42;100414.00;;;5.92
63158;BMP280;49381;49.338;8.794;2022-12-07T08:37:42;100409.13;;;5.98
63158;BMP280;49381;49.338;8.794;2022-12-07T08:39:42;100419.31;;;6.02
63158;BMP280;49381;49.338;8.794;2022-12-07T08:41:44;100416.00;;;6.04
63158;BMP280;49381;49.338;8.794;2022-12-07T08:43:44;100409.34;;;6.06
63158;BMP280;49381;49.338;8.794;2022-12-07T08:45:45;100413.59;;;6.09
63158;BMP280;49381;49.338;8.794;2022-12-07T08:47:50;100412.91;;;6.14
63158;BMP280;49381;49.338;8.794;2022-12-07T08:49:53;100407.88;;;6.16
63158;BMP280;49381;49.338;8.794;2022-12-07T08:51:55;100407.16;;;6.20
63158;BMP280;49381;49.338;8.794;2022-12-07T08:53:56;100408.84;;;6.21
63158;BMP280;49381;49.338;8.794;2022-12-07T08:55:58;100418.53;;;6.06
63158;BMP280;49381;49.338;8.794;2022-12-07T08:58:00;100422.72;;;6.05
63158;BMP280;49381;49.338;8.794;2022-12-07T09:00:03;100413.75;;;6.15
63158;BMP280;49381;49.338;8.794;2022-12-07T09:02:03;100409.41;;;6.09
63158;BMP280;49381;49.338;8.794;2022-12-07T09:04:04;100416.28;;;6.16
63158;BMP280;49381;49.338;8.794;2022-12-07T09:06:05;100413.84;;;6.18
63158;BMP280;49381;49.338;8.794;2022-12-07T09:08:06;100410.50;;;6.19
63158;BMP280;49381;49.338;8.794;2022-12-07T09:10:07;100419.72;;;6.18
63158;BMP280;49381;49.338;8.794;2022-12-07T09:12:07;100419.78;;;6.21
63158;BMP280;49381;49.338;8.794;2022-12-07T09:14:09;100421.44;;;6.21
63158;BMP280;49381;49.338;8.794;2022-12-07T09:16:09;100421.31;;;6.16
63158;BMP280;49381;49.338;8.794;2022-12-07T09:18:10;100423.94;;;6.19
63158;BMP280;49381;49.338;8.794;2022-12-07T09:20:11;100424.88;;;6.23
63158;BMP280;49381;49.338;8.794;2022-12-07T09:22:11;100419.81;;;6.23
63158;BMP280;49381;49.338;8.794;2022-12-07T09:24:12;100422.41;;;6.26
63158;BMP280;49381;49.338;8.794;2022-12-07T09:26:12;100414.81;;;6.24
63158;BMP280;49381;49.338;8.794;2022-12-07T09:28:13;100422.53;;;6.30
63158;BMP280;49381;49.338;8.794;2022-12-07T09:30:14;100423.44;;;6.32
63158;BMP280;49381;49.338;8.794;2022-12-07T09:32:15;100420.69;;;6.25
63158;BMP280;49381;49.338;8.794;2022-12-07T09:34:15;100416.50;;;6.24
63158;BMP280;49381;49.338;8.794;2022-12-07T09:36:15;100416.38;;;6.19
63158;BMP280;49381;49.338;8.794;2022-12-07T09:38:16;100415.53;;;6.19
63158;BMP280;49381;49.338;8.794;2022-12-07T09:40:19;100414.59;;;6.15
63158;BMP280;49381;49.338;8.794;2022-12-07T09:42:27;100421.16;;;6.09
63158;BMP280;49381;49.338;8.794;2022-12-07T09:44:28;100411.69;;;6.01
63158;BMP280;49381;49.338;8.794;2022-12-07T09:46:34;100414.28;;;6.02
63158;BMP280;49381;49.338;8.794;2022-12-07T09:48:37;100405.19;;;6.07
63158;BMP280;49381;49.338;8.794;2022-12-07T09:50:39;100415.19;;;6.05
63158;BMP280;49381;49.338;8.794;2022-12-07T09:52:41;100414.44;;;6.09
63158;BMP280;49381;49.338;8.794;2022-12-07T09:54:46;100404.53;;;6.15
63158;BMP280;49381;49.338;8.794;2022-12-07T09:56:47;100406.16;;;6.13
63158;BMP280;49381;49.338;8.794;2022-12-07T09:58:48;100403.25;;;5.97
63158;BMP280;49381;49.338;8.794;2022-12-07T10:00:49;100402.59;;;6.05
63158;BMP280;49381;49.338;8.794;2022-12-07T10:02:54;100407.94;;;6.17
63158;BMP280;49381;49.338;8.794;2022-12-07T10:04:57;100405.56;;;6.23
63158;BMP280;49381;49.338;8.794;2022-12-07T10:06:58;100403.28;;;6.32
63158;BMP280;49381;49.338;8.794;2022-12-07T10:08:58;100401.66;;;6.34
63158;BMP280;49381;49.338;8.794;2022-12-07T10:11:01;100401.78;;;6.40
63158;BMP280;49381;49.338;8.794;2022-12-07T10:13:03;100406.19;;;6.48
63158;BMP280;49381;49.338;8.794;2022-12-07T10:15:04;100402.13;;;6.53
63158;BMP280;49381;49.338;8.794;2022-12-07T10:17:27;100392.88;;;6.53
63158;BMP280;49381;49.338;8.794;2022-12-07T10:19:32;100398.97;;;6.61
63158;BMP280;49381;49.338;8.794;2022-12-07T10:21:32;100400.75;;;6.67
63158;BMP280;49381;49.338;8.794;2022-12-07T10:23:34;100393.09;;;6.62
63158;BMP280;49381;49.338;8.794;2022-12-07T10:25:36;100393.94;;;6.63
63158;BMP280;49381;49.338;8.794;2022-12-07T10:27:36;100390.63;;;6.65
63158;BMP280;49381;49.338;8.794;2022-12-07T10:29:38;100387.28;;;6.65
63158;BMP280;49381;49.338;8.794;2022-12-07T10:31:39;100374.69;;;6.65
63158;BMP280;49381;49.338;8.794;2022-12-07T10:33:49;100388.88;;;6.61
63158;BMP280;49381;49.338;8.794;2022-12-07T10:35:51;100374.69;;;6.65
63158;BMP280;49381;49.338;8.794;2022-12-07T10:37:52;100377.25;;;6.66
63158;BMP280;49381;49.338;8.794;2022-12-07T10:39:54;100375.53;;;6.65
63158;BMP280;49381;49.338;8.794;2022-12-07T10:41:56;100375.47;;;6.62
63158;BMP280;49381;49.338;8.794;2022-12-07T10:43:57;100374.81;;;6.71
63158;BMP280;49381;49.338;8.794;2022-12-07T10:46:10;100370.66;;;6.71
63158;BMP280;49381;49.338;8.794;2022-12-07T10:48:20;100362.88;;;6.62
63158;BMP280;49381;49.338;8.794;2022-12-07T10:50:44;100367.94;;;6.64
63158;BMP280;49381;49.338;8.794;2022-12-07T10:55:33;100363.84;;;6.69
63158;BMP280;49381;49.338;8.794;2022-12-07T10:57:46;100368.19;;;6.76
63158;BMP280;49381;49.338;8.794;2022-12-07T11:00:00;100361.53;;;6.77
63158;BMP280;49381;49.338;8.794;2022-12-07T11:02:17;100356.63;;;6.83
63158;BMP280;49381;49.338;8.794;2022-12-07T11:04:24;100360.00;;;6.84
63158;BMP280;49381;49.338;8.794;2022-12-07T11:06:34;100362.69;;;6.55
63158;BMP280;49381;49.338;8.794;2022-12-07T11:08:48;100358.66;;;6.61
63158;BMP280;49381;49.338;8.794;2022-12-07T11:10:55;100352.84;;;6.65
63158;BMP280;49381;49.338;8.794;2022-12-07T11:13:24;100358.22;;;6.80
63158;BMP280;49381;49.338;8.794;2022-12-07T11:15:29;100360.00;;;6.84
63158;BMP280;49381;49.338;8.794;2022-12-07T11:17:36;100361.78;;;6.89
63158;BMP280;49381;49.338;8.794;2022-12-07T11:19:53;100354.25;;;6.91
63158;BMP280;49381;49.338;8.794;2022-12-07T11:22:00;100351.72;;;6.91
63158;BMP280;49381;49.338;8.794;2022-12-07T11:24:10;100345.91;;;6.92
63158;BMP280;49381;49.338;8.794;2022-12-07T11:26:23;100340.66;;;6.83
63158;BMP280;49381;49.338;8.794;2022-12-07T11:28:31;100332.47;;;6.93
63158;BMP280;49381;49.338;8.794;2022-12-07T11:30:43;100339.31;;;7.00
63158;BMP280;49381;49.338;8.794;2022-12-07T11:33:04;100339.31;;;6.98
63158;BMP280;49381;49.338;8.794;2022-12-07T11:35:16;100334.38;;;7.02
63158;BMP280;49381;49.338;8.794;2022-12-07T11:37:21;100324.38;;;7.07
63158;BMP280;49381;49.338;8.794;2022-12-07T11:39:29;100321.75;;;7.01
63158;BMP280;49381;49.338;8.794;2022-12-07T11:41:31;100316.84;;;7.10
63158;BMP280;49381;49.338;8.794;2022-12-07T11:43:34;100312.66;;;7.10
63158;BMP280;49381;49.338;8.794;2022-12-07T11:45:41;100324.50;;;7.14
63158;BMP280;49381;49.338;8.794;2022-12-07T11:47:45;100320.41;;;7.19
63158;BMP280;49381;49.338;8.794;2022-12-07T11:49:52;100314.72;;;6.87